Time;durP1;ratioP1;P1;durP2;ratioP2;P2;SDS_P1;SDS_P2;PMS_P1;PMS_P2;Temp;Humidity;BMP_temperature;BMP_pressure;BME280_temperature;BME280_humidity;BME280_pressure;Samples;Min_cycle;Max_cycle;Signal;HPM_P1;HPM_P2
2023/12/11 00:00:52;;;;;;;14.17;13.70;;;9.40;99.90;;;;;;5066044;28;20442;-78
2023/12/11 00:03:20;;;;;;;14.57;14.10;;;9.40;1.00;;;;;;5070520;28;20540;-78
2023/12/11 00:05:49;;;;;;;13.90;13.60;;;9.40;1.00;;;;;;5070325;28;20467;-78
2023/12/11 00:08:17;;;;;;;14.27;13.77;;;9.40;1.00;;;;;;5073786;28;20489;-79
2023/12/11 00:10:45;;;;;;;14.13;13.73;;;9.40;1.00;;;;;;5073371;28;20856;-79
2023/12/11 00:13:15;;;;;;;14.30;13.90;;;9.40;1.00;;;;;;5073395;28;20438;-81
2023/12/11 00:15:43;;;;;;;13.73;13.43;;;9.40;1.00;;;;;;5076252;28;20451;-79
2023/12/11 00:18:11;;;;;;;14.50;14.07;;;9.50;1.00;;;;;;5077690;28;20599;-79
2023/12/11 00:20:39;;;;;;;14.83;14.43;;;9.50;94.90;;;;;;5076595;28;21048;-79
2023/12/11 00:23:08;;;;;;;14.37;13.90;;;9.50;99.90;;;;;;5071294;28;20944;-78
2023/12/11 00:25:37;;;;;;;14.27;13.87;;;9.50;99.90;;;;;;5071872;28;20818;-78
2023/12/11 00:28:05;;;;;;;13.83;13.53;;;9.60;99.90;;;;;;5065248;28;20506;-78
2023/12/11 00:30:35;;;;;;;13.60;13.30;;;9.50;99.90;;;;;;5086151;28;20481;-78
2023/12/11 00:33:03;;;;;;;14.03;13.60;;;9.50;1.00;;;;;;5070844;28;20605;-78
2023/12/11 00:35:32;;;;;;;14.50;13.70;;;9.40;1.00;;;;;;5077754;28;20443;-79
2023/12/11 00:38:00;;;;;;;13.60;13.30;;;9.40;99.90;;;;;;5073050;28;20500;-78
2023/12/11 00:40:28;;;;;;;14.23;13.80;;;9.40;99.90;;;;;;5071284;28;20466;-79
2023/12/11 00:42:57;;;;;;;14.20;13.80;;;9.40;99.90;;;;;;5072478;28;20517;-80
2023/12/11 00:45:24;;;;;;;13.90;13.60;;;9.40;99.90;;;;;;5076816;28;20220;-80
2023/12/11 00:47:54;;;;;;;14.00;13.70;;;9.40;99.90;;;;;;5080122;28;20459;-79
2023/12/11 00:50:22;;;;;;;14.30;13.90;;;9.40;99.90;;;;;;5079834;28;20474;-80
2023/12/11 00:52:51;;;;;;;14.00;13.70;;;9.40;99.90;;;;;;5080586;28;20469;-80
2023/12/11 00:55:19;;;;;;;14.13;13.83;;;9.40;99.90;;;;;;5079848;28;20509;-80
2023/12/11 00:57:47;;;;;;;14.03;13.60;;;9.40;1.00;;;;;;5078140;28;20488;-80
2023/12/11 01:00:16;;;;;;;14.10;13.80;;;9.40;99.90;;;;;;5077496;28;21173;-80
2023/12/11 01:02:44;;;;;;;14.07;13.67;;;9.40;1.00;;;;;;5078223;28;21007;-80
2023/12/11 01:05:13;;;;;;;14.20;13.70;;;9.40;1.00;;;;;;5066990;28;21296;-80
2023/12/11 01:07:42;;;;;;;14.00;13.50;;;9.50;1.00;;;;;;5068448;28;20486;-80
2023/12/11 01:10:11;;;;;;;13.67;13.37;;;9.40;1.00;;;;;;5077902;28;20463;-80
2023/12/11 01:12:39;;;;;;;14.30;13.90;;;9.40;1.00;;;;;;5078907;28;20447;-80
2023/12/11 01:15:08;;;;;;;14.03;13.50;;;9.50;1.00;;;;;;5076805;28;20534;-79
2023/12/11 01:17:37;;;;;;;14.00;13.70;;;9.50;1.00;;;;;;5076846;28;20463;-80
2023/12/11 01:20:10;;;;;;;14.30;14.00;;;9.50;1.00;;;;;;5079214;28;20476;-79
2023/12/11 01:22:40;;;;;;;14.50;14.00;;;9.50;1.00;;;;;;5079294;28;20882;-80
2023/12/11 01:25:08;;;;;;;14.30;13.90;;;9.50;1.00;;;;;;5078727;28;20499;-81
2023/12/11 01:27:37;;;;;;;13.70;13.40;;;9.50;1.00;;;;;;5074316;28;20567;-81
2023/12/11 01:30:07;;;;;;;14.40;13.90;;;9.60;1.00;;;;;;5070131;28;20520;-81
2023/12/11 01:32:35;;;;;;;14.00;13.70;;;9.50;1.00;;;;;;5072629;28;20505;-81
2023/12/11 01:35:04;;;;;;;14.50;13.90;;;9.50;1.00;;;;;;5066140;28;20447;-82
2023/12/11 01:37:32;;;;;;;14.37;14.07;;;9.50;1.00;;;;;;5069199;28;20442;-81
2023/12/11 01:40:05;;;;;;;14.30;13.90;;;9.50;1.00;;;;;;5072199;28;20467;-81
2023/12/11 01:42:34;;;;;;;14.70;14.20;;;9.50;99.90;;;;;;5073132;28;20458;-81
2023/12/11 01:45:02;;;;;;;14.40;14.00;;;9.60;99.90;;;;;;5071718;28;20449;-81
2023/12/11 01:47:31;;;;;;;14.47;14.10;;;9.60;99.90;;;;;;5073125;28;20455;-81
2023/12/11 01:50:00;;;;;;;14.50;14.20;;;9.60;1.00;;;;;;5072180;28;20486;-82
2023/12/11 01:52:29;;;;;;;14.57;13.90;;;9.60;1.00;;;;;;5072356;28;20471;-82
2023/12/11 01:54:57;;;;;;;14.30;13.90;;;9.60;99.90;;;;;;5074706;28;20459;-81
2023/12/11 01:57:27;;;;;;;13.90;13.60;;;9.70;1.00;;;;;;5072315;28;20471;-82
2023/12/11 01:59:57;;;;;;;14.50;14.10;;;9.70;99.90;;;;;;5072704;28;21218;-82
2023/12/11 02:02:25;;;;;;;14.00;13.70;;;9.70;99.90;;;;;;5070981;28;20443;-82
2023/12/11 02:04:54;;;;;;;14.00;13.70;;;9.60;99.90;;;;;;5073116;28;20492;-81
2023/12/11 02:07:23;;;;;;;14.43;14.00;;;9.60;17.20;;;;;;5063619;28;20538;-82
2023/12/11 02:09:51;;;;;;;14.10;13.80;;;9.70;99.90;;;;;;5070293;28;20481;-82
2023/12/11 02:12:19;;;;;;;14.27;13.97;;;9.70;99.90;;;;;;5068590;28;20467;-82
2023/12/11 02:14:49;;;;;;;14.20;13.90;;;9.70;99.90;;;;;;5072096;28;21081;-82
2023/12/11 02:17:17;;;;;;;14.47;14.07;;;9.80;99.90;;;;;;5072637;28;20471;-82
2023/12/11 02:19:45;;;;;;;14.60;14.20;;;9.70;99.90;;;;;;5071461;28;20466;-82
2023/12/11 02:22:14;;;;;;;14.80;14.40;;;9.70;99.90;;;;;;5073344;28;20442;-80
2023/12/11 02:24:50;;;;;;;14.77;14.17;;;9.80;99.90;;;;;;5070660;28;20945;-82
2023/12/11 02:27:20;;;;;;;14.20;13.90;;;9.80;99.90;;;;;;5071233;28;20811;-82
2023/12/11 02:29:50;;;;;;;14.50;14.00;;;9.70;1.00;;;;;;5070353;28;20487;-81
2023/12/11 02:32:18;;;;;;;14.20;13.90;;;9.70;1.00;;;;;;5069750;28;20458;-81
2023/12/11 02:34:47;;;;;;;14.43;14.03;;;9.70;26.80;;;;;;5067354;28;20903;-82
2023/12/11 02:37:16;;;;;;;14.47;14.10;;;9.70;75.00;;;;;;5072485;28;21203;-82
2023/12/11 02:39:46;;;;;;;14.10;13.80;;;9.80;99.90;;;;;;5073527;28;20534;-82
2023/12/11 02:42:14;;;;;;;14.63;14.23;;;9.70;99.90;;;;;;5071660;28;20434;-83
2023/12/11 02:44:44;;;;;;;14.37;13.97;;;9.70;99.90;;;;;;5069531;28;20515;-82
2023/12/11 02:47:12;;;;;;;13.97;13.67;;;9.70;99.90;;;;;;5071851;28;20455;-82
2023/12/11 02:49:40;;;;;;;14.17;13.87;;;9.70;99.90;;;;;;5073328;28;20488;-83
2023/12/11 02:52:09;;;;;;;14.20;13.90;;;9.70;99.90;;;;;;5075290;28;21142;-82
2023/12/11 02:54:37;;;;;;;14.20;13.80;;;9.70;1.00;;;;;;5070554;28;20451;-81
2023/12/11 02:57:06;;;;;;;13.90;13.60;;;9.80;1.00;;;;;;5065950;28;20512;-82
2023/12/11 02:59:34;;;;;;;13.93;13.53;;;9.70;1.00;;;;;;5074480;28;20467;-82
2023/12/11 03:02:04;;;;;;;13.90;13.60;;;9.70;1.00;;;;;;5064847;28;21038;-82
2023/12/11 03:04:33;;;;;;;14.00;13.70;;;9.60;1.00;;;;;;5072270;28;20445;-82
2023/12/11 03:07:01;;;;;;;14.77;14.27;;;9.70;1.00;;;;;;5072760;28;20453;-81
2023/12/11 03:09:29;;;;;;;13.60;13.30;;;9.60;1.00;;;;;;5074946;28;20489;-82
2023/12/11 03:11:58;;;;;;;13.70;13.40;;;9.60;1.00;;;;;;5071251;28;20560;-81
2023/12/11 03:14:26;;;;;;;13.90;13.50;;;9.60;1.00;;;;;;5073117;28;20994;-82
2023/12/11 03:16:54;;;;;;;13.97;13.67;;;9.70;1.00;;;;;;5071393;28;20923;-81
2023/12/11 03:19:25;;;;;;;13.80;13.50;;;9.70;1.00;;;;;;5074017;28;20582;-80
2023/12/11 03:21:55;;;;;;;13.90;13.60;;;9.60;1.00;;;;;;5075206;28;20446;-82
2023/12/11 03:24:24;;;;;;;13.93;13.63;;;9.70;1.00;;;;;;5075764;28;20450;-81
2023/12/11 03:26:53;;;;;;;14.37;13.77;;;9.70;1.00;;;;;;5074919;28;20438;-81
2023/12/11 03:29:21;;;;;;;14.00;13.70;;;9.70;1.00;;;;;;5066661;28;20483;-82
2023/12/11 03:31:49;;;;;;;14.10;13.80;;;9.70;1.00;;;;;;5068671;28;20543;-82
2023/12/11 03:34:17;;;;;;;14.47;14.07;;;9.70;1.00;;;;;;5071749;28;20461;-82
2023/12/11 03:36:47;;;;;;;14.93;14.43;;;9.70;1.00;;;;;;5068295;28;20497;-83
2023/12/11 03:39:16;;;;;;;15.30;14.90;;;9.70;1.00;;;;;;5065479;28;20474;-83
2023/12/11 03:41:46;;;;;;;16.00;15.30;;;9.70;1.00;;;;;;5062409;28;20653;-83
2023/12/11 03:44:14;;;;;;;16.77;16.07;;;9.70;1.00;;;;;;5071822;28;20451;-83
2023/12/11 03:46:42;;;;;;;15.50;14.80;;;9.70;1.00;;;;;;5067575;28;20461;-83
2023/12/11 03:49:10;;;;;;;15.20;14.70;;;9.70;1.00;;;;;;5070238;28;20478;-82
2023/12/11 03:51:39;;;;;;;15.37;14.80;;;9.80;1.00;;;;;;5073810;28;20530;-81
2023/12/11 03:54:08;;;;;;;14.80;14.40;;;9.70;1.00;;;;;;5073855;28;20443;-82
2023/12/11 03:56:36;;;;;;;15.43;14.93;;;9.80;1.00;;;;;;5077272;28;20446;-82
2023/12/11 03:59:05;;;;;;;14.60;14.20;;;9.80;1.00;;;;;;5074474;28;20580;-82
2023/12/11 04:01:33;;;;;;;15.40;14.80;;;9.80;1.00;;;;;;5073864;28;21137;-81
2023/12/11 04:04:02;;;;;;;14.27;13.87;;;9.80;1.00;;;;;;5073099;28;20455;-81
2023/12/11 04:06:30;;;;;;;14.20;13.80;;;9.80;1.00;;;;;;5069922;28;20454;-81
2023/12/11 04:09:00;;;;;;;13.90;13.60;;;9.70;1.00;;;;;;5079279;28;20491;-82
2023/12/11 04:11:30;;;;;;;13.60;13.30;;;9.70;1.00;;;;;;5071292;28;22575;-82
2023/12/11 04:14:01;;;;;;;14.17;13.87;;;9.70;1.00;;;;;;5078998;28;20443;-82
2023/12/11 04:16:29;;;;;;;14.20;13.80;;;9.70;1.00;;;;;;5067752;28;20459;-82
2023/12/11 04:18:57;;;;;;;13.87;13.57;;;9.70;1.00;;;;;;5072208;28;20470;-82
2023/12/11 04:21:28;;;;;;;14.07;13.67;;;9.70;1.00;;;;;;5076500;28;20450;-81
2023/12/11 04:23:56;;;;;;;13.80;13.50;;;9.60;1.00;;;;;;5075423;28;20455;-81
2023/12/11 04:26:25;;;;;;;14.00;13.70;;;9.60;1.00;;;;;;5075580;28;20473;-82
2023/12/11 04:28:55;;;;;;;14.00;13.70;;;9.70;1.00;;;;;;5077722;28;20858;-82
2023/12/11 04:31:23;;;;;;;13.93;13.63;;;9.60;1.00;;;;;;5078167;28;20468;-81
2023/12/11 04:33:51;;;;;;;14.27;13.90;;;9.60;1.00;;;;;;5074751;28;20598;-81
2023/12/11 04:36:20;;;;;;;14.43;13.93;;;9.60;1.00;;;;;;5077183;28;20453;-81
2023/12/11 04:38:48;;;;;;;14.40;14.00;;;9.60;1.00;;;;;;5075333;28;22156;-81
2023/12/11 04:41:17;;;;;;;14.30;13.90;;;9.60;1.00;;;;;;5078642;28;20547;-81
2023/12/11 04:43:45;;;;;;;14.20;13.90;;;9.60;1.00;;;;;;5072179;28;20458;-80
2023/12/11 04:46:14;;;;;;;14.00;13.70;;;9.60;1.00;;;;;;5075627;28;20901;-81
2023/12/11 04:48:43;;;;;;;14.20;13.90;;;9.60;1.00;;;;;;5075872;28;20458;-82
2023/12/11 04:51:11;;;;;;;14.50;14.10;;;9.60;1.00;;;;;;5089976;28;20486;-82
2023/12/11 04:53:39;;;;;;;14.50;14.10;;;9.60;1.00;;;;;;5080309;28;20455;-81
2023/12/11 04:56:09;;;;;;;14.80;14.40;;;9.60;1.00;;;;;;5073890;28;20446;-81
2023/12/11 04:58:37;;;;;;;14.77;14.37;;;9.60;1.00;;;;;;5072815;28;20472;-81
2023/12/11 05:01:08;;;;;;;14.40;14.10;;;9.60;1.00;;;;;;5071780;28;20455;-82
2023/12/11 05:03:38;;;;;;;14.20;13.90;;;9.60;1.00;;;;;;5076136;28;20454;-81
2023/12/11 05:06:07;;;;;;;14.40;14.00;;;9.60;1.00;;;;;;5069118;28;20455;-82
2023/12/11 05:08:35;;;;;;;14.30;13.90;;;9.60;1.00;;;;;;5071400;28;20540;-81
2023/12/11 05:11:04;;;;;;;14.40;14.10;;;9.60;1.00;;;;;;5070913;28;20482;-81
2023/12/11 05:13:32;;;;;;;14.60;14.20;;;9.60;1.00;;;;;;5073998;28;20558;-82
2023/12/11 05:16:02;;;;;;;14.43;14.13;;;9.60;1.00;;;;;;5073729;28;20557;-80
2023/12/11 05:18:30;;;;;;;15.57;15.10;;;9.60;1.00;;;;;;5070647;28;20455;-83
2023/12/11 05:21:06;;;;;;;14.80;14.40;;;9.60;1.00;;;;;;5078130;28;20481;-82
2023/12/11 05:23:35;;;;;;;14.67;14.27;;;9.60;1.00;;;;;;5073533;28;20461;-82
2023/12/11 05:26:03;;;;;;;14.77;14.37;;;9.60;1.00;;;;;;5075210;28;20449;-82
2023/12/11 05:28:31;;;;;;;14.70;14.30;;;9.60;1.00;;;;;;5072209;28;20487;-83
2023/12/11 05:31:00;;;;;;;14.50;14.00;;;9.50;1.00;;;;;;5069431;28;20467;-82
2023/12/11 05:33:28;;;;;;;14.20;13.80;;;9.60;1.00;;;;;;5076209;28;20466;-79
2023/12/11 05:35:56;;;;;;;14.10;13.70;;;9.50;99.90;;;;;;5076162;28;20461;-80
2023/12/11 05:38:26;;;;;;;14.00;13.70;;;9.50;99.90;;;;;;5078623;28;20447;-81
2023/12/11 05:40:54;;;;;;;14.40;13.90;;;9.50;99.90;;;;;;5076537;28;20471;-81
2023/12/11 05:43:23;;;;;;;14.03;13.73;;;9.50;99.90;;;;;;5074089;28;20453;-80
2023/12/11 05:45:51;;;;;;;14.27;13.97;;;9.50;99.90;;;;;;5074825;28;21030;-81
2023/12/11 05:48:19;;;;;;;15.50;15.00;;;9.50;99.90;;;;;;5075043;28;20460;-81
2023/12/11 05:50:48;;;;;;;14.53;14.23;;;9.50;99.90;;;;;;5068494;28;20478;-81
2023/12/11 05:53:16;;;;;;;14.97;14.57;;;9.40;99.90;;;;;;5075642;28;20485;-82
2023/12/11 05:55:46;;;;;;;14.20;13.90;;;9.40;99.90;;;;;;5075680;28;20457;-81
2023/12/11 05:58:14;;;;;;;13.93;13.63;;;9.40;99.90;;;;;;5072996;28;20457;-82
2023/12/11 06:00:42;;;;;;;13.90;13.60;;;9.40;1.00;;;;;;5066270;28;20481;-81
2023/12/11 06:03:13;;;;;;;14.60;14.00;;;9.40;1.00;;;;;;5070621;28;20474;-82
2023/12/11 06:05:42;;;;;;;14.33;13.80;;;9.40;1.00;;;;;;5071000;28;20983;-81
2023/12/11 06:08:10;;;;;;;13.87;13.57;;;9.40;1.00;;;;;;5067393;28;20560;-81
2023/12/11 06:10:38;;;;;;;14.13;13.80;;;9.40;1.00;;;;;;5072544;28;20990;-81
2023/12/11 06:13:08;;;;;;;14.20;13.90;;;9.40;1.00;;;;;;5075796;28;20466;-81
2023/12/11 06:15:36;;;;;;;15.33;14.63;;;9.50;99.90;;;;;;5070576;28;20786;-82
2023/12/11 06:18:05;;;;;;;14.37;14.00;;;9.60;99.90;;;;;;5070307;28;20523;-82
2023/12/11 06:20:33;;;;;;;14.33;13.93;;;9.60;99.90;;;;;;5064021;28;20474;-82
2023/12/11 06:23:01;;;;;;;14.60;14.20;;;9.60;99.90;;;;;;5073294;28;21081;-80
2023/12/11 06:25:30;;;;;;;14.70;14.20;;;9.60;99.90;;;;;;5077012;28;20883;-81
2023/12/11 06:27:58;;;;;;;14.70;14.30;;;9.60;99.90;;;;;;5072172;28;20466;-81
2023/12/11 06:30:28;;;;;;;14.53;14.13;;;9.60;99.90;;;;;;5069213;28;20820;-81
2023/12/11 06:32:56;;;;;;;14.30;14.00;;;9.70;99.90;;;;;;5074610;28;20453;-81
2023/12/11 06:35:24;;;;;;;14.10;13.80;;;9.70;99.90;;;;;;5075188;28;20461;-79
2023/12/11 06:37:53;;;;;;;14.33;13.97;;;9.70;99.90;;;;;;5066918;28;20453;-80
2023/12/11 06:40:21;;;;;;;14.10;13.70;;;9.70;99.90;;;;;;5074838;28;20502;-80
2023/12/11 06:42:49;;;;;;;14.93;14.53;;;9.70;99.90;;;;;;5079229;28;20450;-79
2023/12/11 06:45:18;;;;;;;14.93;14.43;;;9.70;99.90;;;;;;5074963;28;20508;-79
2023/12/11 06:47:48;;;;;;;14.50;14.10;;;9.70;99.90;;;;;;5074408;28;20531;-78
2023/12/11 06:50:19;;;;;;;14.63;14.30;;;9.70;99.90;;;;;;5072007;28;20462;-80
2023/12/11 06:52:48;;;;;;;14.50;14.10;;;9.70;99.90;;;;;;5073451;28;20465;-79
2023/12/11 06:55:16;;;;;;;14.80;14.40;;;9.70;99.90;;;;;;5076240;28;20460;-79
2023/12/11 06:57:47;;;;;;;14.47;14.17;;;9.70;99.90;;;;;;5069527;28;20459;-79
2023/12/11 07:00:16;;;;;;;14.60;14.20;;;9.70;99.90;;;;;;5064721;28;20476;-82
2023/12/11 07:02:44;;;;;;;14.60;14.30;;;9.70;99.90;;;;;;5072758;28;20464;-81
2023/12/11 07:05:14;;;;;;;14.40;14.10;;;9.70;99.90;;;;;;5073696;28;20512;-79
2023/12/11 07:07:43;;;;;;;14.70;14.10;;;9.70;99.90;;;;;;5073684;28;20466;-80
2023/12/11 07:10:11;;;;;;;14.80;14.40;;;9.70;99.90;;;;;;5068680;28;20588;-80
2023/12/11 07:12:42;;;;;;;14.93;14.40;;;9.70;99.90;;;;;;5069977;28;20485;-81
2023/12/11 07:15:11;;;;;;;15.17;14.77;;;9.70;99.90;;;;;;5064484;28;20451;-81
2023/12/11 07:17:39;;;;;;;14.80;14.40;;;9.60;99.90;;;;;;5071166;28;20905;-81
2023/12/11 07:20:11;;;;;;;15.00;14.60;;;9.60;99.90;;;;;;5073588;28;20470;-81
2023/12/11 07:22:41;;;;;;;14.83;14.40;;;9.60;99.90;;;;;;5072141;28;20470;-80
2023/12/11 07:25:09;;;;;;;14.30;14.00;;;9.60;48.90;;;;;;5073250;28;20447;-80
2023/12/11 07:27:38;;;;;;;15.30;14.70;;;9.50;21.50;;;;;;5073182;28;21014;-80
2023/12/11 07:30:07;;;;;;;15.30;14.80;;;9.50;99.90;;;;;;5072035;28;20474;-81
2023/12/11 07:32:35;;;;;;;15.77;15.27;;;9.50;99.90;;;;;;5071415;28;20485;-80
2023/12/11 07:35:06;;;;;;;15.23;14.83;;;9.40;99.90;;;;;;5072408;28;20487;-81
2023/12/11 07:37:34;;;;;;;15.83;15.33;;;9.50;99.90;;;;;;5071820;28;20435;-80
2023/12/11 07:40:05;;;;;;;16.40;15.90;;;9.50;99.90;;;;;;5068809;28;20471;-81
2023/12/11 07:42:36;;;;;;;16.20;15.50;;;9.50;99.90;;;;;;5074321;28;20450;-80
2023/12/11 07:45:05;;;;;;;16.37;15.87;;;9.50;99.90;;;;;;5071944;28;20451;-81
2023/12/11 07:47:33;;;;;;;16.90;16.40;;;9.50;99.90;;;;;;5071812;28;20529;-79
2023/12/11 07:50:03;;;;;;;16.03;15.53;;;9.50;99.90;;;;;;5070850;28;20553;-80
2023/12/11 07:52:32;;;;;;;16.20;15.80;;;9.50;99.90;;;;;;5060849;28;21402;-81
2023/12/11 07:55:00;;;;;;;16.10;15.53;;;9.40;99.90;;;;;;5072489;28;20450;-80
2023/12/11 07:57:30;;;;;;;15.90;15.50;;;9.40;99.90;;;;;;5073358;28;20451;-80
2023/12/11 07:59:59;;;;;;;16.57;16.07;;;9.50;99.90;;;;;;5071740;28;21021;-80
2023/12/11 08:02:27;;;;;;;16.50;15.90;;;9.50;99.90;;;;;;5067806;28;20480;-80
2023/12/11 08:04:55;;;;;;;16.27;15.67;;;9.50;99.90;;;;;;5070662;28;20497;-80
2023/12/11 08:07:24;;;;;;;17.03;16.53;;;9.50;99.90;;;;;;5059134;28;20450;-80
2023/12/11 08:09:52;;;;;;;16.73;16.23;;;9.50;1.00;;;;;;5072634;28;20478;-80
2023/12/11 08:12:20;;;;;;;16.67;16.17;;;9.50;99.90;;;;;;5074441;28;20489;-80
2023/12/11 08:14:50;;;;;;;16.10;15.60;;;9.50;1.00;;;;;;5070461;28;20451;-81
2023/12/11 08:17:18;;;;;;;16.53;16.03;;;9.50;1.00;;;;;;5070678;28;20459;-80
2023/12/11 08:19:46;;;;;;;16.03;15.53;;;9.50;1.00;;;;;;5069162;28;20542;-81
2023/12/11 08:22:15;;;;;;;16.43;15.70;;;9.50;1.00;;;;;;5066139;28;20547;-80
2023/12/11 08:24:43;;;;;;;16.37;15.87;;;9.50;1.00;;;;;;5070600;28;20485;-80
2023/12/11 08:27:12;;;;;;;15.83;15.30;;;9.50;29.00;;;;;;5072078;28;20531;-80
2023/12/11 08:29:40;;;;;;;16.30;15.80;;;9.60;1.00;;;;;;5074678;28;20484;-80
2023/12/11 08:32:10;;;;;;;16.50;15.90;;;9.60;1.00;;;;;;5073591;28;20475;-81
2023/12/11 08:34:38;;;;;;;16.67;16.13;;;9.70;1.00;;;;;;5075729;28;20956;-80
2023/12/11 08:37:07;;;;;;;15.73;15.33;;;9.70;1.00;;;;;;5067030;28;20458;-80
2023/12/11 08:39:38;;;;;;;15.80;15.40;;;9.70;99.90;;;;;;5072396;28;20459;-80
2023/12/11 08:42:07;;;;;;;16.43;15.97;;;9.80;99.90;;;;;;5070775;28;20545;-80
2023/12/11 08:44:35;;;;;;;16.50;16.00;;;9.80;99.90;;;;;;5075525;28;20452;-80
2023/12/11 08:47:04;;;;;;;17.67;17.10;;;9.80;99.90;;;;;;5073960;28;20465;-80
2023/12/11 08:49:33;;;;;;;16.40;15.90;;;9.90;99.90;;;;;;5072098;28;20474;-81
2023/12/11 08:52:03;;;;;;;16.50;15.80;;;9.90;1.00;;;;;;5070853;28;20482;-80
2023/12/11 08:54:31;;;;;;;16.40;15.63;;;10.00;99.90;;;;;;5076018;28;20458;-80
2023/12/11 08:56:59;;;;;;;16.80;16.20;;;10.10;1.00;;;;;;5074811;28;21439;-81
2023/12/11 08:59:28;;;;;;;16.83;16.33;;;10.20;1.00;;;;;;5078072;28;20506;-80
2023/12/11 09:01:57;;;;;;;16.77;16.27;;;10.30;1.00;;;;;;5075259;28;20941;-80
2023/12/11 09:04:25;;;;;;;16.60;16.10;;;10.30;75.80;;;;;;5078329;28;20477;-81
2023/12/11 09:06:55;;;;;;;16.80;16.30;;;10.40;92.20;;;;;;5074636;28;20453;-81
2023/12/11 09:09:23;;;;;;;16.33;15.83;;;10.40;1.00;;;;;;5077920;28;20488;-80
2023/12/11 09:11:52;;;;;;;16.40;16.00;;;10.50;7.50;;;;;;5075830;28;20569;-81
2023/12/11 09:14:20;;;;;;;17.10;16.60;;;10.40;1.00;;;;;;5077525;28;20435;-81
2023/12/11 09:16:48;;;;;;;17.70;17.10;;;10.40;1.00;;;;;;5075601;28;20476;-80
2023/12/11 09:19:16;;;;;;;16.53;16.00;;;10.30;1.00;;;;;;5071476;28;20554;-81
2023/12/11 09:21:49;;;;;;;16.23;15.83;;;10.30;99.90;;;;;;5071332;28;20501;-81
2023/12/11 09:24:19;;;;;;;16.10;15.70;;;10.20;38.20;;;;;;5077069;28;20455;-81
2023/12/11 09:26:47;;;;;;;16.93;16.43;;;10.20;1.00;;;;;;5069111;28;20516;-81
2023/12/11 09:29:16;;;;;;;17.03;16.40;;;10.30;69.10;;;;;;5075962;28;20471;-80
2023/12/11 09:31:45;;;;;;;16.93;16.33;;;10.30;99.90;;;;;;5073121;28;20465;-81
2023/12/11 09:34:14;;;;;;;16.83;16.33;;;10.30;63.50;;;;;;5073518;28;20447;-81
2023/12/11 09:36:42;;;;;;;16.20;15.60;;;10.30;99.90;;;;;;5074108;28;20470;-81
2023/12/11 09:39:10;;;;;;;15.70;15.30;;;10.30;30.00;;;;;;5075292;28;20601;-81
2023/12/11 09:41:41;;;;;;;16.90;16.30;;;10.30;1.00;;;;;;5074685;28;20442;-81
2023/12/11 09:44:10;;;;;;;16.73;16.20;;;10.40;99.90;;;;;;5076683;28;20450;-81
2023/12/11 09:46:43;;;;;;;16.50;16.10;;;10.40;99.90;;;;;;5075040;28;20939;-80
2023/12/11 09:49:12;;;;;;;16.30;15.80;;;10.40;99.90;;;;;;5074621;28;20474;-81
2023/12/11 09:51:42;;;;;;;17.23;16.43;;;10.40;99.90;;;;;;5073427;28;20455;-80
2023/12/11 09:54:10;;;;;;;16.63;16.17;;;10.50;99.90;;;;;;5077102;28;20471;-80
2023/12/11 09:56:40;;;;;;;16.80;16.30;;;10.50;99.90;;;;;;5076908;28;20549;-81
2023/12/11 09:59:10;;;;;;;17.07;16.57;;;10.60;15.80;;;;;;5077745;28;20488;-80
2023/12/11 10:01:38;;;;;;;16.87;16.37;;;10.70;1.00;;;;;;5069420;28;20565;-80
2023/12/11 10:04:07;;;;;;;17.20;16.70;;;10.70;1.00;;;;;;5075922;28;20450;-81
2023/12/11 10:06:36;;;;;;;16.40;16.00;;;10.60;1.00;;;;;;5072752;28;20504;-80
2023/12/11 10:09:04;;;;;;;16.50;16.10;;;10.70;99.90;;;;;;5075200;28;20471;-80
2023/12/11 10:11:33;;;;;;;16.90;16.47;;;11.00;99.90;;;;;;5077064;28;20849;-81
2023/12/11 10:14:12;;;;;;;16.60;16.10;;;11.10;99.90;;;;;;5076245;28;20505;-81
2023/12/11 10:16:40;;;;;;;16.47;15.97;;;11.10;64.20;;;;;;5075681;28;20480;-81
2023/12/11 10:19:08;;;;;;;16.40;15.80;;;11.10;21.90;;;;;;5075880;28;20466;-80
2023/12/11 10:21:39;;;;;;;16.30;15.80;;;11.20;1.00;;;;;;5077770;28;20461;-80
2023/12/11 10:24:13;;;;;;;17.10;16.50;;;11.40;1.00;;;;;;5069431;28;20557;-81
2023/12/11 10:26:46;;;;;;;16.80;16.30;;;11.30;99.90;;;;;;5070810;28;20544;-80
2023/12/11 10:29:21;;;;;;;16.50;16.00;;;11.20;99.90;;;;;;5072444;28;20463;-80
2023/12/11 10:31:50;;;;;;;17.07;16.57;;;11.00;1.00;;;;;;5077813;28;20454;-80
2023/12/11 10:34:18;;;;;;;17.20;16.40;;;11.00;1.00;;;;;;5075294;28;20481;-80
2023/12/11 10:36:51;;;;;;;16.13;15.63;;;11.00;99.90;;;;;;5077491;28;20446;-80
2023/12/11 10:39:20;;;;;;;16.27;15.67;;;11.20;99.90;;;;;;5073394;28;21081;-81
2023/12/11 10:41:52;;;;;;;16.07;15.57;;;11.60;1.00;;;;;;5074259;28;20458;-81
2023/12/11 10:44:25;;;;;;;15.60;15.00;;;11.50;99.90;;;;;;5077677;28;20457;-80
2023/12/11 10:47:14;;;;;;;15.80;15.40;;;11.40;99.90;;;;;;5072272;28;20455;-80
2023/12/11 10:49:43;;;;;;;15.17;14.77;;;11.30;99.90;;;;;;5076189;28;20480;-80
2023/12/11 10:52:12;;;;;;;16.03;15.50;;;11.20;99.90;;;;;;5077757;28;21466;-80
2023/12/11 10:54:41;;;;;;;16.10;15.50;;;11.10;1.00;;;;;;5076043;28;20487;-80
2023/12/11 10:57:13;;;;;;;15.50;15.00;;;11.20;1.00;;;;;;5074886;28;20541;-80
2023/12/11 10:59:45;;;;;;;16.70;16.10;;;11.10;1.00;;;;;;5075650;28;20557;-81
2023/12/11 11:02:16;;;;;;;16.23;15.73;;;11.20;99.90;;;;;;5077491;28;20459;-81
2023/12/11 11:04:46;;;;;;;15.90;15.30;;;11.20;99.90;;;;;;5075193;28;20593;-81
2023/12/11 11:07:18;;;;;;;15.47;14.97;;;11.20;99.90;;;;;;5060440;28;20512;-80
2023/12/11 11:09:55;;;;;;;15.50;15.10;;;11.20;99.90;;;;;;5073158;28;20493;-80
2023/12/11 11:12:36;;;;;;;15.77;15.27;;;11.20;99.90;;;;;;5072929;28;20800;-80
2023/12/11 11:15:09;;;;;;;15.60;15.10;;;11.20;99.90;;;;;;5076374;28;20442;-81
2023/12/11 11:17:59;;;;;;;16.30;15.70;;;11.30;99.90;;;;;;5072849;28;20574;-81
2023/12/11 11:20:29;;;;;;;15.30;14.80;;;11.30;60.80;;;;;;5075726;28;20478;-80
2023/12/11 11:23:26;;;;;;;15.27;14.80;;;11.30;99.90;;;;;;5074065;28;20455;-80
2023/12/11 11:25:55;;;;;;;15.27;14.70;;;11.30;25.30;;;;;;5030010;28;20475;-80
2023/12/11 11:28:38;;;;;;;14.83;14.40;;;11.30;1.00;;;;;;5074294;28;20829;-80
2023/12/11 11:31:08;;;;;;;15.30;14.80;;;11.40;1.00;;;;;;5072142;28;20933;-81
2023/12/11 11:33:56;;;;;;;15.77;15.03;;;11.50;1.00;;;;;;5071399;28;20487;-80
2023/12/11 11:36:46;;;;;;;15.50;14.77;;;11.50;1.00;;;;;;5072564;28;20549;-80
2023/12/11 11:39:14;;;;;;;16.10;15.60;;;11.60;1.00;;;;;;5064311;28;20475;-81
2023/12/11 11:41:44;;;;;;;16.00;15.50;;;11.70;99.90;;;;;;5057529;28;20533;-79
2023/12/11 11:44:15;;;;;;;15.30;14.90;;;11.60;99.90;;;;;;5055744;28;22005;-80
2023/12/11 11:46:52;;;;;;;15.60;14.90;;;11.70;99.90;;;;;;5064771;28;21147;-79
2023/12/11 11:49:28;;;;;;;17.20;16.50;;;11.80;99.90;;;;;;5060436;28;20479;-80
2023/12/11 11:51:57;;;;;;;15.40;14.90;;;11.80;99.90;;;;;;5059526;28;20459;-80
2023/12/11 11:54:26;;;;;;;15.17;14.67;;;11.80;86.60;;;;;;5061367;28;20482;-81
2023/12/11 11:56:54;;;;;;;15.43;14.90;;;11.80;69.80;;;;;;5056715;28;20462;-80
2023/12/11 11:59:23;;;;;;;15.87;15.20;;;11.80;7.40;;;;;;5058490;28;20474;-81
2023/12/11 12:01:53;;;;;;;15.57;14.83;;;11.80;1.00;;;;;;5059417;28;20454;-80
2023/12/11 12:04:32;;;;;;;14.70;14.30;;;11.80;1.00;;;;;;5066270;28;20455;-81
2023/12/11 12:07:03;;;;;;;15.20;14.50;;;11.70;1.00;;;;;;5056963;28;20454;-81
2023/12/11 12:09:33;;;;;;;14.60;14.10;;;11.70;1.00;;;;;;5058301;28;20489;-80
2023/12/11 12:12:04;;;;;;;15.30;14.70;;;11.70;1.00;;;;;;5065296;28;20546;-80
2023/12/11 12:14:32;;;;;;;14.80;14.20;;;11.70;1.00;;;;;;5064613;28;20470;-80
2023/12/11 12:17:09;;;;;;;15.57;15.07;;;11.80;1.00;;;;;;5060963;28;20458;-81
2023/12/11 12:19:38;;;;;;;15.53;14.73;;;11.80;1.00;;;;;;5074238;28;20477;-80
2023/12/11 12:22:06;;;;;;;14.60;14.20;;;11.90;1.00;;;;;;5075543;28;20458;-81
2023/12/11 12:24:39;;;;;;;15.57;14.87;;;12.00;1.00;;;;;;5069683;28;20978;-80
2023/12/11 12:27:11;;;;;;;15.53;14.70;;;12.10;1.00;;;;;;5067398;28;20455;-80
2023/12/11 12:29:42;;;;;;;15.37;14.77;;;12.10;1.00;;;;;;5079909;28;20517;-80
2023/12/11 12:32:15;;;;;;;15.53;14.83;;;12.10;1.00;;;;;;5072716;28;21280;-79
2023/12/11 12:34:46;;;;;;;15.33;14.60;;;12.10;1.00;;;;;;5063847;28;20988;-80
2023/12/11 12:37:15;;;;;;;15.10;14.60;;;12.10;1.00;;;;;;5063973;28;21013;-80
2023/12/11 12:39:43;;;;;;;14.83;14.33;;;12.20;1.00;;;;;;5064387;28;20538;-80
2023/12/11 12:42:12;;;;;;;15.50;14.70;;;12.00;1.00;;;;;;5076614;28;20453;-81
2023/12/11 12:44:42;;;;;;;15.10;14.50;;;12.00;1.00;;;;;;5076182;28;20450;-83
2023/12/11 12:47:12;;;;;;;15.20;14.30;;;12.00;1.00;;;;;;5075716;28;20802;-84
2023/12/11 12:49:40;;;;;;;15.20;14.30;;;12.10;1.00;;;;;;5067497;28;20480;-83